Time;durP1;ratioP1;P1;durP2;ratioP2;P2;SDS_P1;SDS_P2;PMS_P1;PMS_P2;Temp;Humidity;BMP_temperature;BMP_pressure;BME280_temperature;BME280_humidity;BME280_pressure;Samples;Min_cycle;Max_cycle;Signal;HPM_P1;HPM_P2
2021/05/19 04:02:07;;;;;;;15.37;12.00;;;7.50;96.30;;;;;;5153718;23;20490;-78
2021/05/19 04:04:32;;;;;;;16.57;12.80;;;7.50;96.30;;;;;;4956424;29;20470;-78
2021/05/19 04:06:58;;;;;;;14.10;11.57;;;7.50;96.30;;;;;;4956153;29;20182;-78
2021/05/19 04:09:23;;;;;;;13.60;12.17;;;7.50;96.30;;;;;;4939261;29;20261;-78
2021/05/19 04:11:49;;;;;;;15.87;13.23;;;7.50;96.30;;;;;;4956367;28;20198;-78
2021/05/19 04:14:15;;;;;;;14.93;13.07;;;7.60;96.30;;;;;;4994445;23;20284;-78
2021/05/19 04:16:40;;;;;;;14.47;13.00;;;7.60;96.30;;;;;;4955673;29;20642;-77
2021/05/19 04:19:07;;;;;;;14.00;12.30;;;7.60;96.30;;;;;;4956384;28;20175;-77
2021/05/19 04:21:33;;;;;;;15.00;13.40;;;7.60;96.30;;;;;;4939545;29;20526;-79
2021/05/19 04:23:59;;;;;;;14.40;12.57;;;7.60;96.30;;;;;;4957884;28;20995;-78
2021/05/19 04:26:24;;;;;;;13.97;12.63;;;7.60;96.30;;;;;;4956433;29;20190;-78
2021/05/19 04:28:50;;;;;;;13.17;11.87;;;7.70;96.30;;;;;;4956180;29;20645;-78
2021/05/19 04:31:16;;;;;;;14.70;13.20;;;7.70;96.30;;;;;;4939138;29;20186;-78
2021/05/19 04:33:42;;;;;;;13.20;11.90;;;7.70;96.30;;;;;;4928708;29;20218;-79
2021/05/19 04:36:07;;;;;;;15.87;14.17;;;7.70;96.30;;;;;;4936077;29;20420;-78
2021/05/19 04:38:33;;;;;;;17.10;15.17;;;7.80;96.30;;;;;;4936346;29;20666;-79
2021/05/19 04:40:59;;;;;;;17.70;15.30;;;7.80;96.30;;;;;;4936339;29;20188;-77
2021/05/19 04:43:25;;;;;;;16.10;14.50;;;7.80;96.30;;;;;;4936384;29;20211;-78
2021/05/19 04:45:51;;;;;;;16.97;15.33;;;7.70;96.30;;;;;;4936752;29;20170;-78
2021/05/19 04:48:17;;;;;;;20.20;15.77;;;7.80;96.30;;;;;;4936025;29;20415;-78
2021/05/19 04:50:42;;;;;;;17.67;14.50;;;7.70;96.30;;;;;;4936323;29;20294;-77
2021/05/19 04:53:08;;;;;;;15.20;13.60;;;7.70;96.30;;;;;;4936760;29;20179;-77
2021/05/19 04:55:33;;;;;;;16.93;13.70;;;7.70;96.30;;;;;;4932667;29;20316;-77
2021/05/19 04:57:59;;;;;;;18.50;14.83;;;7.70;96.30;;;;;;4935070;29;20188;-78
2021/05/19 05:00:25;;;;;;;17.77;14.90;;;7.70;96.30;;;;;;4935225;29;20237;-78
2021/05/19 05:02:51;;;;;;;17.43;13.43;;;7.70;96.30;;;;;;4934722;29;20896;-78
2021/05/19 05:05:16;;;;;;;17.30;15.30;;;7.70;96.30;;;;;;4934608;29;20708;-78
2021/05/19 05:07:42;;;;;;;15.90;13.83;;;7.70;96.30;;;;;;4933222;29;20699;-77
2021/05/19 05:10:09;;;;;;;20.00;15.13;;;7.70;96.30;;;;;;4932758;29;20227;-75
2021/05/19 05:12:35;;;;;;;19.70;15.90;;;7.70;96.30;;;;;;4932867;29;20186;-75
2021/05/19 05:15:01;;;;;;;17.10;14.40;;;7.80;96.30;;;;;;4935060;29;20455;-76
2021/05/19 05:17:27;;;;;;;15.53;13.93;;;7.80;96.30;;;;;;4917832;29;20462;-75
2021/05/19 05:19:53;;;;;;;19.10;14.03;;;7.70;96.30;;;;;;4918712;29;20463;-76
2021/05/19 05:22:18;;;;;;;18.47;14.23;;;7.70;96.30;;;;;;4935758;29;20190;-76
2021/05/19 05:24:44;;;;;;;18.13;14.13;;;7.70;96.30;;;;;;4918660;29;20754;-77
2021/05/19 05:27:09;;;;;;;14.53;12.30;;;7.80;96.30;;;;;;4935055;29;20679;-77
2021/05/19 05:29:35;;;;;;;13.47;11.63;;;7.90;96.30;;;;;;4935531;29;20175;-77
2021/05/19 05:32:00;;;;;;;14.93;12.23;;;7.90;96.30;;;;;;4935760;29;20234;-78
2021/05/19 05:34:27;;;;;;;18.20;12.97;;;7.90;96.30;;;;;;4935667;29;20597;-77
2021/05/19 05:36:53;;;;;;;20.37;13.00;;;8.00;96.30;;;;;;4934573;29;20214;-77
2021/05/19 05:39:19;;;;;;;15.50;12.73;;;8.00;96.30;;;;;;4934905;29;20451;-78
2021/05/19 05:41:45;;;;;;;18.77;13.33;;;8.10;96.30;;;;;;4935076;29;20550;-77
2021/05/19 05:44:10;;;;;;;16.90;13.90;;;8.20;96.30;;;;;;4917228;29;20589;-78
2021/05/19 05:46:36;;;;;;;18.87;14.53;;;8.20;96.30;;;;;;4934370;29;20423;-78
2021/05/19 05:49:02;;;;;;;18.67;14.23;;;8.40;96.30;;;;;;4920993;29;20180;-78
2021/05/19 05:51:27;;;;;;;15.13;13.53;;;8.50;96.30;;;;;;4932009;29;20175;-78
2021/05/19 05:53:53;;;;;;;17.90;13.20;;;8.50;96.30;;;;;;4935438;29;20219;-78
2021/05/19 05:56:21;;;;;;;17.43;13.97;;;8.70;96.30;;;;;;4946907;29;20655;-78
2021/05/19 05:58:46;;;;;;;19.23;14.93;;;8.90;96.30;;;;;;4937022;29;20880;-78
2021/05/19 06:01:12;;;;;;;15.23;13.73;;;9.00;96.30;;;;;;4935383;29;20511;-78
2021/05/19 06:03:37;;;;;;;15.83;11.90;;;9.10;96.30;;;;;;4935228;29;20214;-78
2021/05/19 06:06:03;;;;;;;14.40;12.87;;;9.10;96.30;;;;;;4935035;29;20543;-78
2021/05/19 06:08:29;;;;;;;13.57;12.13;;;9.20;96.30;;;;;;4934686;29;20262;-78
2021/05/19 06:10:55;;;;;;;13.27;11.97;;;9.20;96.30;;;;;;4935020;29;20201;-78
2021/05/19 06:13:21;;;;;;;15.30;11.97;;;9.30;96.30;;;;;;4934977;29;20172;-78
2021/05/19 06:15:47;;;;;;;13.37;12.07;;;9.40;96.30;;;;;;4935056;29;20395;-78
2021/05/19 06:18:13;;;;;;;14.00;12.40;;;9.40;96.30;;;;;;4934424;29;20755;-78
2021/05/19 06:20:38;;;;;;;12.00;10.80;;;9.40;96.30;;;;;;4934928;29;20190;-78
2021/05/19 06:23:04;;;;;;;17.27;11.03;;;9.40;96.30;;;;;;4934933;29;20517;-78
2021/05/19 06:25:30;;;;;;;12.50;11.20;;;9.40;96.30;;;;;;4936662;29;20203;-78
2021/05/19 06:27:55;;;;;;;17.50;11.97;;;9.50;96.30;;;;;;4934328;29;20239;-78
2021/05/19 06:30:21;;;;;;;17.53;12.20;;;9.50;96.30;;;;;;4917859;29;20183;-78
2021/05/19 06:32:47;;;;;;;12.30;11.00;;;9.50;96.30;;;;;;4935063;29;20207;-78
2021/05/19 06:35:12;;;;;;;12.13;10.93;;;9.60;96.30;;;;;;4934859;29;20196;-78
2021/05/19 06:37:38;;;;;;;13.63;12.07;;;9.70;96.30;;;;;;4934031;29;20251;-78
2021/05/19 06:40:04;;;;;;;15.60;12.83;;;9.80;96.30;;;;;;4934795;29;20639;-78
2021/05/19 06:42:30;;;;;;;14.40;10.90;;;9.90;96.30;;;;;;4934762;29;20530;-78
2021/05/19 06:44:56;;;;;;;17.47;12.13;;;9.80;96.30;;;;;;4934694;29;20475;-79
2021/05/19 06:47:22;;;;;;;14.83;11.47;;;9.80;96.30;;;;;;4934342;29;20200;-75
2021/05/19 06:49:47;;;;;;;9.27;6.00;;;9.60;96.30;;;;;;4934077;29;20423;-75
2021/05/19 06:52:15;;;;;;;5.70;5.20;;;9.50;96.30;;;;;;4931577;29;20211;-76
2021/05/19 06:54:41;;;;;;;5.20;4.70;;;9.40;96.30;;;;;;4931753;29;20199;-76
2021/05/19 06:57:06;;;;;;;5.23;4.73;;;9.30;96.30;;;;;;4937339;29;20419;-76
2021/05/19 06:59:32;;;;;;;9.67;6.60;;;9.30;96.30;;;;;;4937969;29;20824;-76
2021/05/19 07:01:58;;;;;;;4.47;4.07;;;9.10;96.30;;;;;;4938547;29;20183;-76
2021/05/19 07:04:23;;;;;;;4.93;2.63;;;8.90;96.30;;;;;;4936440;29;20219;-76
2021/05/19 07:06:49;;;;;;;1.87;1.70;;;8.40;96.30;;;;;;4942288;29;20183;-76
2021/05/19 07:09:14;;;;;;;2.57;1.70;;;8.00;96.30;;;;;;4929904;29;20676;-75
2021/05/19 07:11:40;;;;;;;1.37;1.27;;;7.80;96.30;;;;;;4938024;29;20654;-75
2021/05/19 07:14:13;;;;;;;1.80;1.70;;;7.60;96.30;;;;;;4940935;29;20230;-75
2021/05/19 07:16:41;;;;;;;1.67;1.57;;;7.50;96.30;;;;;;4937469;29;20247;-75
2021/05/19 07:19:07;;;;;;;4.07;1.70;;;7.40;96.30;;;;;;4937753;29;20419;-75
2021/05/19 07:21:32;;;;;;;1.53;1.43;;;7.40;96.30;;;;;;4937849;29;20786;-75
2021/05/19 07:23:58;;;;;;;2.70;1.90;;;7.40;96.30;;;;;;4937833;29;20550;-75
2021/05/19 07:26:24;;;;;;;2.20;1.43;;;7.50;96.30;;;;;;4937452;29;20171;-75
2021/05/19 07:28:52;;;;;;;1.83;1.60;;;7.50;96.30;;;;;;4937769;29;20572;-75
2021/05/19 07:31:17;;;;;;;1.23;1.13;;;7.50;96.30;;;;;;4937805;29;20423;-75
2021/05/19 07:33:43;;;;;;;3.10;2.07;;;7.50;96.30;;;;;;4937771;29;20439;-75
2021/05/19 07:36:08;;;;;;;1.10;1.00;;;7.40;96.30;;;;;;4937126;29;20183;-75
2021/05/19 07:38:34;;;;;;;1.17;1.07;;;7.40;96.30;;;;;;4937629;29;20206;-75
2021/05/19 07:40:59;;;;;;;1.53;1.43;;;7.30;96.30;;;;;;4937745;29;20851;-75
2021/05/19 07:43:25;;;;;;;1.20;1.10;;;7.30;96.30;;;;;;4937784;29;21130;-75
2021/05/19 07:45:50;;;;;;;1.53;1.23;;;7.30;96.30;;;;;;4938254;29;20178;-76
2021/05/19 07:48:16;;;;;;;3.03;1.63;;;7.30;96.30;;;;;;4936660;29;20203;-75
2021/05/19 07:50:41;;;;;;;6.33;1.70;;;7.30;96.30;;;;;;4937554;29;20187;-75
2021/05/19 07:53:07;;;;;;;1.47;1.37;;;7.30;96.30;;;;;;4920187;29;20207;-76
2021/05/19 07:58:20;;;;;;;1.60;1.50;;;7.40;96.30;;;;;;4936971;29;20182;-75
2021/05/19 08:00:58;;;;;;;1.97;1.23;;;7.40;96.30;;;;;;4937443;29;20416;-75
2021/05/19 08:03:25;;;;;;;1.57;1.47;;;7.50;96.30;;;;;;4937652;29;20965;-76
2021/05/19 08:05:50;;;;;;;1.80;1.70;;;7.60;96.30;;;;;;4937257;29;20965;-78
2021/05/19 08:08:16;;;;;;;1.77;1.67;;;7.80;96.30;;;;;;4935939;29;20407;-78
2021/05/19 08:10:43;;;;;;;1.60;1.47;;;7.80;96.30;;;;;;4937339;29;20536;-78
2021/05/19 08:13:09;;;;;;;1.80;1.63;;;7.90;96.30;;;;;;4937195;29;20239;-78
2021/05/19 08:15:36;;;;;;;4.20;1.73;;;8.10;96.30;;;;;;4920159;29;20452;-77
2021/05/19 08:18:09;;;;;;;2.03;1.70;;;8.30;96.30;;;;;;4919421;29;20507;-76
2021/05/19 08:20:34;;;;;;;2.10;1.90;;;8.40;96.30;;;;;;4917864;29;20416;-77
2021/05/19 08:23:00;;;;;;;5.57;2.00;;;8.50;96.30;;;;;;4917731;29;20415;-78
2021/05/19 08:25:26;;;;;;;2.43;2.20;;;8.60;96.30;;;;;;4900993;29;20200;-76
2021/05/19 08:27:52;;;;;;;8.00;2.47;;;8.60;96.30;;;;;;4917448;29;20176;-77
2021/05/19 08:30:17;;;;;;;2.73;2.40;;;8.50;96.30;;;;;;4918720;29;20405;-76
2021/05/19 08:32:43;;;;;;;2.53;1.93;;;8.50;96.30;;;;;;4936888;29;20179;-75
2021/05/19 08:35:09;;;;;;;2.37;2.10;;;8.40;96.30;;;;;;4934718;29;20745;-75
2021/05/19 08:37:36;;;;;;;2.43;1.70;;;8.20;96.30;;;;;;4933646;29;20180;-75
2021/05/19 08:40:01;;;;;;;1.70;1.60;;;8.10;96.30;;;;;;4917707;29;20176;-75
2021/05/19 08:42:27;;;;;;;1.70;1.60;;;8.10;96.30;;;;;;4917647;29;20419;-75
2021/05/19 08:44:55;;;;;;;1.70;1.60;;;8.20;96.30;;;;;;4933777;29;20215;-77
2021/05/19 08:47:25;;;;;;;1.63;1.53;;;8.20;96.30;;;;;;4935983;29;20167;-77
2021/05/19 08:49:51;;;;;;;1.70;1.60;;;8.30;96.30;;;;;;4936450;29;20547;-77
2021/05/19 08:52:18;;;;;;;1.50;1.40;;;8.30;96.30;;;;;;4936449;29;20510;-76
2021/05/19 08:54:43;;;;;;;3.13;1.73;;;8.40;96.30;;;;;;4936487;29;20204;-77
2021/05/19 08:57:10;;;;;;;2.50;1.30;;;8.40;96.30;;;;;;4935846;29;20510;-77
2021/05/19 08:59:37;;;;;;;1.60;1.37;;;8.50;96.30;;;;;;4936436;29;20175;-77
2021/05/19 09:02:16;;;;;;;1.83;1.73;;;8.50;96.30;;;;;;4936011;29;20420;-76
2021/05/19 09:04:43;;;;;;;2.10;1.30;;;8.50;96.30;;;;;;4936013;29;20549;-76
2021/05/19 09:07:17;;;;;;;2.03;1.80;;;8.50;96.30;;;;;;4935363;29;20990;-75
2021/05/19 09:09:43;;;;;;;4.20;1.40;;;8.50;96.30;;;;;;4936267;29;20410;-75
2021/05/19 09:12:13;;;;;;;1.57;1.47;;;8.50;96.30;;;;;;4936141;29;20498;-75
2021/05/19 09:14:45;;;;;;;4.70;1.40;;;8.70;96.30;;;;;;4935889;29;20222;-75
2021/05/19 09:17:29;;;;;;;1.73;1.33;;;8.80;96.30;;;;;;4935212;29;20430;-76
2021/05/19 09:20:02;;;;;;;1.40;1.10;;;8.80;96.30;;;;;;4918704;29;20423;-77
2021/05/19 09:22:31;;;;;;;2.70;1.43;;;8.90;96.30;;;;;;4936143;29;20422;-76
2021/05/19 09:24:58;;;;;;;1.63;1.10;;;9.00;96.30;;;;;;4935807;29;20490;-76
2021/05/19 09:27:36;;;;;;;1.40;1.30;;;9.10;96.30;;;;;;4935142;29;20412;-76
2021/05/19 09:30:02;;;;;;;1.30;1.20;;;9.00;96.30;;;;;;4918812;29;20423;-75
2021/05/19 09:32:28;;;;;;;1.50;1.23;;;9.00;96.30;;;;;;4935562;29;20431;-75
2021/05/19 09:34:53;;;;;;;1.33;1.23;;;9.00;96.30;;;;;;4934118;29;21078;-75
2021/05/19 09:37:25;;;;;;;1.47;1.37;;;9.00;96.30;;;;;;4923561;29;20180;-75
2021/05/19 09:40:06;;;;;;;2.03;1.00;;;9.00;96.30;;;;;;4916263;29;20161;-76
2021/05/19 09:42:35;;;;;;;1.10;0.90;;;9.00;96.30;;;;;;4899023;29;20416;-76
2021/05/19 09:45:19;;;;;;;1.10;1.00;;;9.00;96.30;;;;;;4900630;29;20468;-76
2021/05/19 09:47:45;;;;;;;1.60;1.40;;;9.10;96.30;;;;;;4934530;29;20400;-77
2021/05/19 09:50:13;;;;;;;1.30;1.07;;;9.20;96.30;;;;;;4918134;29;20494;-77
2021/05/19 09:52:38;;;;;;;1.30;1.20;;;9.40;96.30;;;;;;4935091;29;20414;-77
2021/05/19 09:55:10;;;;;;;1.67;1.30;;;9.50;96.30;;;;;;4934795;29;20451;-78
2021/05/19 09:57:44;;;;;;;1.60;1.40;;;9.70;96.30;;;;;;4934568;29;20179;-78
2021/05/19 10:00:12;;;;;;;2.23;1.77;;;9.70;96.30;;;;;;4934890;29;20475;-78
2021/05/19 10:02:40;;;;;;;1.70;1.60;;;9.60;96.30;;;;;;4934758;29;20926;-78
2021/05/19 10:05:11;;;;;;;2.00;1.47;;;9.50;96.30;;;;;;4934640;29;20503;-78
2021/05/19 10:07:38;;;;;;;1.50;1.40;;;9.70;96.30;;;;;;4934501;29;20404;-76
2021/05/19 10:10:04;;;;;;;1.93;1.73;;;9.80;96.30;;;;;;4935026;29;20404;-76
2021/05/19 10:12:30;;;;;;;2.50;1.50;;;9.90;96.30;;;;;;4934918;29;20475;-76
2021/05/19 10:14:58;;;;;;;2.03;1.83;;;10.00;96.30;;;;;;4917573;29;20459;-77
2021/05/19 10:17:24;;;;;;;1.70;1.40;;;9.90;96.30;;;;;;4934159;29;20911;-76
2021/05/19 10:19:58;;;;;;;2.00;1.90;;;10.00;96.30;;;;;;4935114;29;20419;-76
2021/05/19 10:22:25;;;;;;;3.00;2.80;;;10.40;96.30;;;;;;4935007;29;20419;-76
2021/05/19 10:25:04;;;;;;;2.97;2.50;;;11.20;96.30;;;;;;4934753;29;20463;-77
2021/05/19 10:27:57;;;;;;;2.70;2.50;;;12.00;96.30;;;;;;4934455;29;20407;-77
2021/05/19 10:30:34;;;;;;;2.67;1.70;;;13.00;96.30;;;;;;4934426;29;20431;-77
2021/05/19 10:33:00;;;;;;;2.43;1.77;;;13.70;96.30;;;;;;4934793;29;20904;-77
2021/05/19 10:35:34;;;;;;;4.23;1.90;;;14.50;96.30;;;;;;4934632;29;20442;-77
2021/05/19 10:38:19;;;;;;;1.40;1.30;;;14.00;96.30;;;;;;4932922;29;20183;-76
2021/05/19 10:41:05;;;;;;;1.70;1.60;;;14.40;96.30;;;;;;4964416;23;20483;-79
2021/05/19 10:43:52;;;;;;;1.80;1.50;;;14.40;96.30;;;;;;4967090;28;20491;-79
2021/05/19 10:46:59;;;;;;;1.90;1.60;;;14.30;96.30;;;;;;4973192;28;20909;-79
2021/05/19 10:50:01;;;;;;;3.60;1.97;;;14.70;96.30;;;;;;4973635;28;20858;-79
2021/05/19 10:58:00;;;;;;;2.30;2.10;;;13.90;96.30;;;;;;4953744;29;20401;-79
2021/05/19 11:00:30;;;;;;;2.57;2.30;;;13.60;96.30;;;;;;4954158;28;20438;-79
2021/05/19 11:02:57;;;;;;;2.90;2.40;;;13.80;96.30;;;;;;4953627;28;21013;-79
2021/05/19 11:05:25;;;;;;;2.37;2.17;;;14.30;96.30;;;;;;4949548;28;20456;-79
2021/05/19 11:08:10;;;;;;;4.10;2.50;;;14.60;96.30;;;;;;4932950;29;20420;-79
2021/05/19 11:10:38;;;;;;;3.70;3.23;;;15.30;96.30;;;;;;4934718;28;20447;-79
2021/05/19 11:13:05;;;;;;;3.80;3.50;;;15.90;96.30;;;;;;4933953;29;20418;-79
2021/05/19 11:15:37;;;;;;;2.83;2.63;;;16.40;96.30;;;;;;4934825;29;20418;-79
2021/05/19 11:20:55;;;;;;;3.67;3.37;;;16.10;96.30;;;;;;4952922;28;20486;-79
2021/05/19 11:23:20;;;;;;;3.87;3.50;;;17.10;96.30;;;;;;4933714;29;20543;-79
2021/05/19 11:25:47;;;;;;;3.07;2.87;;;17.80;96.30;;;;;;4935189;29;20861;-79
2021/05/19 11:28:22;;;;;;;5.33;3.27;;;18.10;94.80;;;;;;4941940;29;20180;-79
2021/05/19 11:30:47;;;;;;;3.90;3.60;;;17.60;96.30;;;;;;4948381;29;20435;-78
2021/05/19 11:33:17;;;;;;;3.10;2.80;;;17.30;95.90;;;;;;4935099;29;20470;-78
2021/05/19 11:35:47;;;;;;;3.00;2.80;;;16.20;96.30;;;;;;4935138;29;20663;-79
2021/05/19 11:38:14;;;;;;;3.17;2.97;;;16.20;96.30;;;;;;4934594;29;20400;-79
2021/05/19 11:40:43;;;;;;;3.50;3.00;;;15.60;96.30;;;;;;4934636;29;20451;-79
2021/05/19 11:43:11;;;;;;;3.93;3.63;;;15.00;96.30;;;;;;4957206;28;20816;-79
2021/05/19 11:45:37;;;;;;;3.50;3.20;;;14.90;96.30;;;;;;4976406;28;20410;-78
2021/05/19 11:48:03;;;;;;;4.50;4.10;;;14.80;96.30;;;;;;4973980;28;20449;-79
2021/05/19 11:50:31;;;;;;;3.90;3.60;;;15.20;96.30;;;;;;4976698;28;20454;-79
2021/05/19 11:53:09;;;;;;;4.60;3.80;;;16.40;96.30;;;;;;4976770;28;20233;-79
2021/05/19 11:55:38;;;;;;;3.97;3.63;;;17.50;96.30;;;;;;4977243;28;21132;-79
2021/05/19 11:58:22;;;;;;;4.47;4.07;;;17.80;95.30;;;;;;4976640;28;20424;-79
2021/05/19 12:00:53;;;;;;;3.90;3.07;;;17.00;95.20;;;;;;4976275;28;20433;-78
2021/05/19 12:03:20;;;;;;;3.70;3.37;;;15.90;96.30;;;;;;4975390;28;20508;-79
2021/05/19 12:06:00;;;;;;;3.10;2.90;;;14.90;96.30;;;;;;4963285;28;20494;-79
2021/05/19 12:08:35;;;;;;;6.53;2.77;;;13.90;96.30;;;;;;4938347;29;20395;-79
2021/05/19 12:11:08;;;;;;;9.53;3.10;;;10.90;96.30;;;;;;4939886;28;20778;-76
2021/05/19 12:13:36;;;;;;;4.83;3.20;;;9.60;96.30;;;;;;4950365;28;20420;-77
2021/05/19 12:16:05;;;;;;;5.97;3.00;;;8.80;96.30;;;;;;4949261;28;20430;-77
2021/05/19 12:18:30;;;;;;;5.70;3.43;;;8.30;96.30;;;;;;4955539;28;20423;-77
2021/05/19 12:20:56;;;;;;;4.43;4.07;;;8.10;96.30;;;;;;4975549;28;20433;-77
2021/05/19 12:23:22;;;;;;;4.50;4.10;;;8.10;96.30;;;;;;4975496;28;20249;-77
2021/05/19 12:25:48;;;;;;;4.67;4.37;;;8.10;96.30;;;;;;4975438;28;20170;-78
2021/05/19 12:28:24;;;;;;;5.00;4.60;;;8.10;96.30;;;;;;4975219;28;20249;-78
2021/05/19 12:30:58;;;;;;;5.10;4.70;;;8.10;96.30;;;;;;4961660;28;20203;-77
2021/05/19 12:33:25;;;;;;;5.10;4.70;;;8.20;96.30;;;;;;4956245;28;20805;-77
2021/05/19 12:35:51;;;;;;;5.07;4.63;;;8.30;96.30;;;;;;4956009;28;20415;-77
2021/05/19 12:38:22;;;;;;;5.77;5.27;;;8.20;96.30;;;;;;4955494;28;20892;-77
2021/05/19 12:40:49;;;;;;;7.87;6.00;;;8.20;96.30;;;;;;4955907;29;20466;-78
2021/05/19 12:43:26;;;;;;;6.87;6.27;;;8.40;96.30;;;;;;4947675;28;20787;-78
2021/05/19 12:45:53;;;;;;;7.43;6.70;;;8.20;96.30;;;;;;4938401;29;20419;-79
2021/05/19 12:48:25;;;;;;;6.70;6.13;;;8.40;96.30;;;;;;4965591;28;20871;-78
2021/05/19 12:51:01;;;;;;;7.50;6.80;;;8.60;96.30;;;;;;4977295;28;20495;-79
2021/05/19 12:53:30;;;;;;;7.73;6.80;;;8.80;96.30;;;;;;4978066;28;20824;-79
2021/05/19 12:56:03;;;;;;;7.80;6.57;;;8.80;96.30;;;;;;4977447;28;20421;-79
2021/05/19 12:58:31;;;;;;;6.87;6.23;;;8.90;96.30;;;;;;4977821;28;20418;-79
2021/05/19 13:01:00;;;;;;;7.07;6.47;;;9.20;96.30;;;;;;4985169;28;20447;-80
2021/05/19 13:03:36;;;;;;;7.80;7.10;;;9.70;96.30;;;;;;4943669;29;20465;-79
2021/05/19 13:06:03;;;;;;;8.73;6.60;;;10.20;96.30;;;;;;4944861;29;20505;-79
2021/05/19 13:08:29;;;;;;;7.07;6.47;;;10.50;96.30;;;;;;4939017;28;20431;-79
2021/05/19 13:10:55;;;;;;;5.73;5.23;;;10.80;96.30;;;;;;4937349;29;20777;-79
2021/05/19 13:13:35;;;;;;;6.27;5.60;;;11.10;96.30;;;;;;4937397;29;20171;-79
2021/05/19 13:16:09;;;;;;;6.20;5.63;;;11.10;96.30;;;;;;4955953;28;20390;-79
2021/05/19 13:18:43;;;;;;;4.67;3.83;;;11.50;96.30;;;;;;4954834;29;20402;-79
2021/05/19 13:21:16;;;;;;;4.90;4.50;;;11.70;96.30;;;;;;4955236;28;20434;-78
2021/05/19 13:23:51;;;;;;;4.10;3.70;;;12.00;96.30;;;;;;4955254;28;20454;-78
2021/05/19 13:26:22;;;;;;;3.40;3.10;;;12.00;96.30;;;;;;4954435;28;20400;-78
2021/05/19 13:28:49;;;;;;;3.30;3.10;;;12.90;96.30;;;;;;4953805;29;20450;-78
2021/05/19 13:31:18;;;;;;;3.40;3.10;;;13.50;96.30;;;;;;4954680;28;20529;-78
2021/05/19 13:34:00;;;;;;;3.10;2.80;;;14.00;96.30;;;;;;4954899;28;20468;-79
2021/05/19 13:36:45;;;;;;;2.60;2.40;;;14.00;96.30;;;;;;4954294;28;20704;-78
2021/05/19 13:39:13;;;;;;;2.30;2.10;;;13.90;96.30;;;;;;4953269;29;20426;-78
2021/05/19 13:41:40;;;;;;;2.50;2.40;;;14.00;96.30;;;;;;4953928;29;20490;-78
2021/05/19 13:44:07;;;;;;;2.40;2.20;;;14.80;96.30;;;;;;4954623;28;20520;-78
2021/05/19 13:46:32;;;;;;;3.10;2.23;;;15.00;96.30;;;;;;4954024;28;20421;-78
2021/05/19 13:51:44;;;;;;;2.60;2.40;;;14.90;96.30;;;;;;4942430;29;20179;-78
2021/05/19 13:54:10;;;;;;;2.57;2.30;;;15.00;96.30;;;;;;4935459;29;20939;-78
2021/05/19 13:56:36;;;;;;;4.00;2.40;;;15.30;96.30;;;;;;4934767;29;20419;-77
2021/05/19 13:59:02;;;;;;;2.30;2.10;;;15.60;96.30;;;;;;4945513;28;20189;-78
2021/05/19 14:01:28;;;;;;;2.03;1.87;;;15.80;96.30;;;;;;4939343;28;20179;-78
2021/05/19 14:03:53;;;;;;;2.57;2.37;;;15.30;96.30;;;;;;4951817;29;20731;-77
2021/05/19 14:06:19;;;;;;;2.43;2.23;;;15.00;96.30;;;;;;4939864;29;20930;-78
2021/05/19 14:08:44;;;;;;;2.57;1.93;;;15.00;96.30;;;;;;4934869;29;20182;-78
2021/05/19 14:11:13;;;;;;;2.30;1.97;;;15.20;96.30;;;;;;4935073;29;20687;-78
2021/05/19 14:13:46;;;;;;;2.23;2.03;;;15.10;95.50;;;;;;4935144;29;20187;-78
2021/05/19 14:19:01;;;;;;;2.13;1.93;;;15.50;96.30;;;;;;4955825;28;20440;-78
2021/05/19 14:29:17;;;;;;;2.70;2.50;;;15.30;96.30;;;;;;4934918;29;21064;-78
2021/05/19 14:31:42;;;;;;;3.17;2.97;;;14.60;96.30;;;;;;4933588;29;20502;-78
2021/05/19 14:34:09;;;;;;;2.50;2.30;;;14.30;96.30;;;;;;4934917;29;20235;-78
2021/05/19 14:36:59;;;;;;;4.37;3.47;;;13.70;96.30;;;;;;4934406;29;20208;-78
2021/05/19 14:45:05;;;;;;;2.90;2.70;;;14.60;96.30;;;;;;4934577;29;20546;-78
2021/05/19 14:48:37;;;;;;;3.17;2.97;;;14.90;96.30;;;;;;4934339;29;20758;-79
2021/05/19 14:59:06;;;;;;;2.90;2.70;;;15.90;96.30;;;;;;4935046;29;20399;-78
2021/05/19 15:01:32;;;;;;;6.10;3.17;;;16.00;96.30;;;;;;4934622;29;20439;-79
2021/05/19 15:03:59;;;;;;;3.17;2.97;;;16.40;96.30;;;;;;4935790;29;20466;-78
2021/05/19 15:06:27;;;;;;;3.07;2.87;;;16.30;96.30;;;;;;4935516;29;20687;-79
2021/05/19 15:08:52;;;;;;;6.77;3.00;;;16.20;96.30;;;;;;4935365;29;20422;-78
2021/05/19 15:11:18;;;;;;;2.37;2.03;;;16.00;95.40;;;;;;4935516;29;20436;-78
2021/05/19 15:13:43;;;;;;;4.67;1.73;;;15.90;91.00;;;;;;4935889;29;20548;-78
2021/05/19 15:16:09;;;;;;;1.80;1.70;;;16.10;93.10;;;;;;4934209;29;20184;-78
2021/05/19 15:18:34;;;;;;;1.53;1.43;;;15.80;92.00;;;;;;4937873;29;20203;-79
2021/05/19 15:21:00;;;;;;;1.70;1.60;;;15.70;91.20;;;;;;4946947;28;20242;-78
2021/05/19 15:23:25;;;;;;;2.13;1.70;;;15.50;96.30;;;;;;4957215;28;20175;-78
2021/05/19 15:25:51;;;;;;;9.23;1.40;;;15.40;94.70;;;;;;4949361;28;20230;-79
2021/05/19 15:28:16;;;;;;;1.20;1.10;;;15.50;94.10;;;;;;4948596;29;20219;-78
2021/05/19 15:30:42;;;;;;;2.50;1.60;;;15.60;92.30;;;;;;4936650;29;20196;-78
2021/05/19 15:33:07;;;;;;;1.97;1.77;;;15.60;96.30;;;;;;4945693;29;20172;-78
2021/05/19 15:35:33;;;;;;;1.67;1.57;;;15.80;96.30;;;;;;4954848;29;20258;-78
2021/05/19 15:37:59;;;;;;;1.70;1.33;;;16.20;96.30;;;;;;4955966;29;20644;-78
2021/05/19 15:40:26;;;;;;;1.13;1.00;;;16.40;92.40;;;;;;4956782;29;20214;-78
2021/05/19 15:42:52;;;;;;;3.20;0.80;;;16.20;86.10;;;;;;4956973;28;20406;-78
2021/05/19 15:45:18;;;;;;;1.00;0.80;;;15.80;85.20;;;;;;4956531;29;20496;-78
2021/05/19 15:47:44;;;;;;;2.30;0.83;;;15.30;88.00;;;;;;4955355;29;20418;-80
2021/05/19 15:50:11;;;;;;;1.13;0.93;;;15.30;90.30;;;;;;4958091;28;20521;-78
2021/05/19 15:52:37;;;;;;;3.00;0.93;;;15.30;88.40;;;;;;4957449;28;20413;-79
2021/05/19 15:55:04;;;;;;;0.97;0.80;;;15.20;88.20;;;;;;4955402;29;20426;-79
2021/05/19 15:57:30;;;;;;;0.90;0.80;;;14.60;88.50;;;;;;4956401;28;20183;-79
2021/05/19 15:59:55;;;;;;;1.40;1.10;;;14.10;89.30;;;;;;4956726;29;20489;-78
2021/05/19 16:02:21;;;;;;;1.10;1.00;;;14.00;89.60;;;;;;4959234;29;20193;-78
2021/05/19 16:04:48;;;;;;;1.10;1.00;;;14.40;91.80;;;;;;4956996;29;20206;-78
2021/05/19 16:07:14;;;;;;;1.10;0.97;;;14.50;93.40;;;;;;4954888;28;20591;-78
2021/05/19 16:09:39;;;;;;;4.97;1.20;;;14.80;91.90;;;;;;4939709;29;20453;-79
2021/05/19 16:12:05;;;;;;;2.70;1.23;;;15.10;91.00;;;;;;4937427;29;20179;-78
2021/05/19 16:14:31;;;;;;;3.43;1.30;;;15.10;93.60;;;;;;4938434;29;20242;-79
2021/05/19 16:16:56;;;;;;;3.43;1.27;;;15.00;93.60;;;;;;4937308;29;20196;-79
2021/05/19 16:19:22;;;;;;;2.60;1.03;;;15.00;88.50;;;;;;4938870;29;20210;-78
2021/05/19 16:21:48;;;;;;;1.43;1.13;;;14.80;95.00;;;;;;4937386;29;20184;-78
2021/05/19 16:24:13;;;;;;;2.93;1.07;;;14.50;94.40;;;;;;4937631;29;20203;-79
2021/05/19 16:26:39;;;;;;;1.23;1.10;;;14.60;96.30;;;;;;4937267;29;20176;-79
2021/05/19 16:30:19;;;;;;;2.17;0.90;;;14.70;94.80;;;;;;4937074;29;20243;-79
2021/05/19 16:35:58;;;;;;;1.87;1.20;;;13.70;94.70;;;;;;4931158;29;20446;-78
2021/05/19 16:38:24;;;;;;;2.30;1.00;;;13.30;96.30;;;;;;4935684;29;20451;-79
2021/05/19 16:40:49;;;;;;;1.20;0.80;;;13.00;96.30;;;;;;4936289;29;20227;-78
2021/05/19 16:43:15;;;;;;;1.97;0.77;;;12.90;96.30;;;;;;4937860;29;20198;-79
2021/05/19 16:45:40;;;;;;;1.30;0.80;;;12.70;96.30;;;;;;4946193;29;20270;-78
2021/05/19 16:48:07;;;;;;;0.90;0.70;;;12.30;96.30;;;;;;4957935;29;20547;-79
2021/05/19 16:50:34;;;;;;;2.43;0.87;;;12.10;96.30;;;;;;4965180;28;20693;-78
2021/05/19 16:53:00;;;;;;;0.90;0.70;;;11.90;96.30;;;;;;4975147;28;21098;-78
2021/05/19 16:55:26;;;;;;;1.10;0.90;;;11.70;96.30;;;;;;4968425;28;20427;-78
2021/05/19 16:57:51;;;;;;;1.80;0.97;;;11.60;96.30;;;;;;4953935;29;20993;-78
2021/05/19 17:00:17;;;;;;;1.17;0.77;;;11.40;96.30;;;;;;4955689;29;20218;-78
2021/05/19 17:05:27;;;;;;;0.90;0.70;;;11.30;96.30;;;;;;4974259;28;20523;-79
2021/05/19 17:07:53;;;;;;;1.00;0.80;;;11.30;96.30;;;;;;4974149;28;20413;-78
2021/05/19 17:10:18;;;;;;;0.90;0.67;;;11.30;96.30;;;;;;4974800;28;20729;-78
2021/05/19 17:12:44;;;;;;;1.10;0.80;;;11.50;96.30;;;;;;4974626;28;20174;-81
2021/05/19 17:15:10;;;;;;;1.20;1.00;;;11.60;96.30;;;;;;4973805;28;20178;-78
2021/05/19 17:17:35;;;;;;;1.33;1.10;;;11.90;96.30;;;;;;4974254;28;20201;-79
2021/05/19 17:20:01;;;;;;;13.37;1.30;;;12.20;96.30;;;;;;4967800;28;20938;-79
2021/05/19 17:22:27;;;;;;;1.10;0.90;;;12.60;96.30;;;;;;4939341;29;20190;-79
2021/05/19 17:24:52;;;;;;;1.57;1.00;;;12.90;96.30;;;;;;4944728;28;20843;-79
2021/05/19 17:27:19;;;;;;;1.90;0.80;;;12.90;96.30;;;;;;4954424;29;20207;-79
2021/05/19 17:29:45;;;;;;;1.10;0.80;;;12.90;96.30;;;;;;4955111;28;20195;-78
2021/05/19 17:32:10;;;;;;;1.43;1.00;;;13.00;96.30;;;;;;4954044;28;20490;-79
2021/05/19 17:34:36;;;;;;;2.60;1.00;;;13.10;96.30;;;;;;4955144;28;20241;-79
2021/05/19 17:37:01;;;;;;;2.13;0.80;;;13.10;96.30;;;;;;4954613;28;20614;-79
2021/05/19 17:39:27;;;;;;;1.10;1.00;;;13.10;96.30;;;;;;4954692;28;20210;-79